sensor_id;sensor_type;location;lat;lon;timestamp;P1;durP1;ratioP1;P2;durP2;ratioP2
52047;SDS011;46904;49.438;8.752;2023-12-07T00:00:27;9.73;;;4.15;;
52047;SDS011;46904;49.438;8.752;2023-12-07T00:02:53;6.40;;;3.65;;
52047;SDS011;46904;49.438;8.752;2023-12-07T00:05:18;5.57;;;3.80;;
52047;SDS011;46904;49.438;8.752;2023-12-07T00:07:44;5.20;;;3.90;;
52047;SDS011;46904;49.438;8.752;2023-12-07T00:10:10;6.07;;;4.03;;
52047;SDS011;46904;49.438;8.752;2023-12-07T00:12:35;4.68;;;4.13;;
52047;SDS011;46904;49.438;8.752;2023-12-07T00:15:01;6.93;;;3.85;;
52047;SDS011;46904;49.438;8.752;2023-12-07T00:17:26;4.25;;;3.28;;
52047;SDS011;46904;49.438;8.752;2023-12-07T00:19:52;5.10;;;4.18;;
52047;SDS011;46904;49.438;8.752;2023-12-07T00:22:17;5.63;;;4.47;;
52047;SDS011;46904;49.438;8.752;2023-12-07T00:24:43;4.65;;;4.00;;
52047;SDS011;46904;49.438;8.752;2023-12-07T00:27:08;6.00;;;4.25;;
52047;SDS011;46904;49.438;8.752;2023-12-07T06:31:22;9.70;;;6.57;;
52047;SDS011;46904;49.438;8.752;2023-12-07T06:33:47;9.57;;;6.55;;
52047;SDS011;46904;49.438;8.752;2023-12-07T06:36:20;16.27;;;6.68;;
52047;SDS011;46904;49.438;8.752;2023-12-07T06:38:45;13.82;;;7.03;;
52047;SDS011;46904;49.438;8.752;2023-12-07T06:41:11;11.15;;;7.45;;
52047;SDS011;46904;49.438;8.752;2023-12-07T06:43:36;13.52;;;7.25;;
52047;SDS011;46904;49.438;8.752;2023-12-07T06:46:02;13.68;;;8.23;;
52047;SDS011;46904;49.438;8.752;2023-12-07T06:48:28;10.98;;;8.07;;
52047;SDS011;46904;49.438;8.752;2023-12-07T06:50:53;12.25;;;8.15;;
52047;SDS011;46904;49.438;8.752;2023-12-07T06:53:19;13.23;;;6.90;;
52047;SDS011;46904;49.438;8.752;2023-12-07T06:55:44;16.10;;;8.10;;
52047;SDS011;46904;49.438;8.752;2023-12-07T06:58:10;13.55;;;7.63;;
52047;SDS011;46904;49.438;8.752;2023-12-07T07:00:35;19.98;;;7.43;;
52047;SDS011;46904;49.438;8.752;2023-12-07T07:03:01;11.85;;;7.07;;
52047;SDS011;46904;49.438;8.752;2023-12-07T07:05:27;13.52;;;7.78;;
52047;SDS011;46904;49.438;8.752;2023-12-07T07:07:52;13.85;;;7.43;;
52047;SDS011;46904;49.438;8.752;2023-12-07T07:10:18;13.38;;;8.13;;
52047;SDS011;46904;49.438;8.752;2023-12-07T07:12:43;10.90;;;7.03;;
52047;SDS011;46904;49.438;8.752;2023-12-07T07:15:09;14.38;;;7.25;;
52047;SDS011;46904;49.438;8.752;2023-12-07T07:17:34;10.05;;;6.85;;
52047;SDS011;46904;49.438;8.752;2023-12-07T07:20:00;10.25;;;6.68;;
52047;SDS011;46904;49.438;8.752;2023-12-07T07:22:26;10.73;;;7.40;;
52047;SDS011;46904;49.438;8.752;2023-12-07T07:24:51;9.98;;;6.75;;
52047;SDS011;46904;49.438;8.752;2023-12-07T07:27:17;10.80;;;6.88;;
52047;SDS011;46904;49.438;8.752;2023-12-07T07:29:42;11.23;;;6.80;;
52047;SDS011;46904;49.438;8.752;2023-12-07T07:32:08;13.23;;;5.88;;
52047;SDS011;46904;49.438;8.752;2023-12-07T07:34:34;10.80;;;6.70;;
52047;SDS011;46904;49.438;8.752;2023-12-07T07:36:59;12.55;;;7.10;;
52047;SDS011;46904;49.438;8.752;2023-12-07T07:39:25;11.20;;;6.97;;
52047;SDS011;46904;49.438;8.752;2023-12-07T07:41:50;10.40;;;6.95;;
52047;SDS011;46904;49.438;8.752;2023-12-07T07:44:16;11.20;;;6.93;;
52047;SDS011;46904;49.438;8.752;2023-12-07T07:46:42;12.90;;;7.85;;
52047;SDS011;46904;49.438;8.752;2023-12-07T07:49:07;11.57;;;7.25;;
52047;SDS011;46904;49.438;8.752;2023-12-07T07:51:33;12.48;;;7.72;;
52047;SDS011;46904;49.438;8.752;2023-12-07T07:53:59;12.55;;;7.50;;
52047;SDS011;46904;49.438;8.752;2023-12-07T07:56:25;11.40;;;7.05;;
52047;SDS011;46904;49.438;8.752;2023-12-07T07:58:50;11.75;;;7.60;;
52047;SDS011;46904;49.438;8.752;2023-12-07T08:01:16;13.80;;;8.32;;
52047;SDS011;46904;49.438;8.752;2023-12-07T08:03:42;12.98;;;7.30;;
52047;SDS011;46904;49.438;8.752;2023-12-07T08:06:11;12.02;;;7.75;;
52047;SDS011;46904;49.438;8.752;2023-12-07T08:08:39;10.73;;;7.25;;
52047;SDS011;46904;49.438;8.752;2023-12-07T08:11:05;10.98;;;7.15;;
52047;SDS011;46904;49.438;8.752;2023-12-07T08:13:31;12.82;;;7.72;;
52047;SDS011;46904;49.438;8.752;2023-12-07T08:15:57;9.98;;;7.13;;
52047;SDS011;46904;49.438;8.752;2023-12-07T08:18:22;11.20;;;6.95;;
52047;SDS011;46904;49.438;8.752;2023-12-07T08:20:48;12.88;;;7.82;;
52047;SDS011;46904;49.438;8.752;2023-12-07T08:23:13;10.98;;;7.07;;
52047;SDS011;46904;49.438;8.752;2023-12-07T08:25:39;15.48;;;8.82;;
52047;SDS011;46904;49.438;8.752;2023-12-07T08:28:05;14.20;;;7.82;;
52047;SDS011;46904;49.438;8.752;2023-12-07T08:30:31;11.02;;;6.13;;
52047;SDS011;46904;49.438;8.752;2023-12-07T08:32:57;11.30;;;7.28;;
52047;SDS011;46904;49.438;8.752;2023-12-07T08:35:23;19.83;;;7.47;;
52047;SDS011;46904;49.438;8.752;2023-12-07T08:37:49;15.18;;;7.13;;
52047;SDS011;46904;49.438;8.752;2023-12-07T08:40:14;12.00;;;6.70;;
52047;SDS011;46904;49.438;8.752;2023-12-07T08:42:40;12.82;;;7.13;;
52047;SDS011;46904;49.438;8.752;2023-12-07T08:45:06;13.45;;;7.55;;
52047;SDS011;46904;49.438;8.752;2023-12-07T08:47:33;12.30;;;7.65;;
52047;SDS011;46904;49.438;8.752;2023-12-07T08:49:58;8.27;;;5.75;;
52047;SDS011;46904;49.438;8.752;2023-12-07T08:52:24;12.20;;;6.68;;
52047;SDS011;46904;49.438;8.752;2023-12-07T08:54:50;9.82;;;5.55;;
52047;SDS011;46904;49.438;8.752;2023-12-07T08:57:17;10.40;;;5.97;;
52047;SDS011;46904;49.438;8.752;2023-12-07T08:59:42;8.38;;;4.88;;
52047;SDS011;46904;49.438;8.752;2023-12-07T09:02:08;8.98;;;5.47;;
52047;SDS011;46904;49.438;8.752;2023-12-07T09:04:33;9.13;;;5.50;;
52047;SDS011;46904;49.438;8.752;2023-12-07T09:06:59;8.10;;;4.70;;
52047;SDS011;46904;49.438;8.752;2023-12-07T09:09:25;8.93;;;5.30;;
52047;SDS011;46904;49.438;8.752;2023-12-07T09:11:50;6.82;;;4.85;;
52047;SDS011;46904;49.438;8.752;2023-12-07T09:14:16;9.50;;;5.40;;
52047;SDS011;46904;49.438;8.752;2023-12-07T09:16:45;7.95;;;5.03;;
52047;SDS011;46904;49.438;8.752;2023-12-07T09:19:11;10.05;;;5.07;;
52047;SDS011;46904;49.438;8.752;2023-12-07T09:21:36;11.38;;;6.15;;
52047;SDS011;46904;49.438;8.752;2023-12-07T09:24:05;9.25;;;5.55;;
52047;SDS011;46904;49.438;8.752;2023-12-07T09:26:31;9.80;;;5.88;;
52047;SDS011;46904;49.438;8.752;2023-12-07T09:28:57;12.18;;;6.07;;
52047;SDS011;46904;49.438;8.752;2023-12-07T09:31:23;11.02;;;6.15;;
52047;SDS011;46904;49.438;8.752;2023-12-07T09:33:48;13.93;;;6.28;;
52047;SDS011;46904;49.438;8.752;2023-12-07T09:36:18;10.25;;;5.90;;
52047;SDS011;46904;49.438;8.752;2023-12-07T09:38:44;10.35;;;5.80;;
52047;SDS011;46904;49.438;8.752;2023-12-07T09:41:10;8.05;;;4.68;;
52047;SDS011;46904;49.438;8.752;2023-12-07T09:43:40;11.00;;;5.82;;
52047;SDS011;46904;49.438;8.752;2023-12-07T09:46:12;10.65;;;5.60;;
52047;SDS011;46904;49.438;8.752;2023-12-07T09:48:48;9.38;;;5.90;;
52047;SDS011;46904;49.438;8.752;2023-12-07T09:51:15;11.48;;;6.10;;
52047;SDS011;46904;49.438;8.752;2023-12-07T09:53:44;16.27;;;6.82;;
52047;SDS011;46904;49.438;8.752;2023-12-07T09:58:38;11.25;;;5.93;;
52047;SDS011;46904;49.438;8.752;2023-12-07T10:01:07;9.60;;;5.45;;
52047;SDS011;46904;49.438;8.752;2023-12-07T10:03:34;9.48;;;5.68;;
52047;SDS011;46904;49.438;8.752;2023-12-07T10:06:00;10.55;;;5.82;;
52047;SDS011;46904;49.438;8.752;2023-12-07T10:08:27;10.50;;;6.22;;
52047;SDS011;46904;49.438;8.752;2023-12-07T10:11:05;10.32;;;5.78;;
52047;SDS011;46904;49.438;8.752;2023-12-07T10:13:35;10.88;;;6.07;;
52047;SDS011;46904;49.438;8.752;2023-12-07T10:16:05;10.55;;;5.65;;
52047;SDS011;46904;49.438;8.752;2023-12-07T10:18:31;12.43;;;6.30;;
52047;SDS011;46904;49.438;8.752;2023-12-07T10:20:58;8.55;;;5.28;;
52047;SDS011;46904;49.438;8.752;2023-12-07T10:23:24;8.75;;;5.25;;
52047;SDS011;46904;49.438;8.752;2023-12-07T10:25:57;11.90;;;7.18;;
52047;SDS011;46904;49.438;8.752;2023-12-07T10:28:24;13.13;;;7.38;;
52047;SDS011;46904;49.438;8.752;2023-12-07T10:30:52;12.43;;;6.50;;
52047;SDS011;46904;49.438;8.752;2023-12-07T10:33:19;10.23;;;6.07;;
52047;SDS011;46904;49.438;8.752;2023-12-07T10:35:46;10.23;;;6.20;;
52047;SDS011;46904;49.438;8.752;2023-12-07T10:38:12;9.40;;;5.78;;
52047;SDS011;46904;49.438;8.752;2023-12-07T10:40:38;10.85;;;6.43;;
52047;SDS011;46904;49.438;8.752;2023-12-07T10:43:05;9.02;;;6.07;;
52047;SDS011;46904;49.438;8.752;2023-12-07T10:45:32;9.65;;;6.28;;
52047;SDS011;46904;49.438;8.752;2023-12-07T10:50:28;8.65;;;5.00;;
52047;SDS011;46904;49.438;8.752;2023-12-07T10:52:56;9.82;;;5.68;;
52047;SDS011;46904;49.438;8.752;2023-12-07T10:55:29;9.65;;;6.25;;
52047;SDS011;46904;49.438;8.752;2023-12-07T10:57:56;10.55;;;5.93;;
52047;SDS011;46904;49.438;8.752;2023-12-07T11:00:22;10.23;;;6.75;;
52047;SDS011;46904;49.438;8.752;2023-12-07T11:06:31;8.05;;;5.30;;
52047;SDS011;46904;49.438;8.752;2023-12-07T11:13:20;8.30;;;5.28;;
52047;SDS011;46904;49.438;8.752;2023-12-07T11:15:48;8.60;;;5.60;;
52047;SDS011;46904;49.438;8.752;2023-12-07T11:18:14;9.20;;;6.03;;
52047;SDS011;46904;49.438;8.752;2023-12-07T11:20:43;11.00;;;5.88;;
52047;SDS011;46904;49.438;8.752;2023-12-07T11:23:10;7.28;;;5.18;;
52047;SDS011;46904;49.438;8.752;2023-12-07T11:25:36;9.02;;;5.38;;
52047;SDS011;46904;49.438;8.752;2023-12-07T11:28:02;8.00;;;5.25;;
52047;SDS011;46904;49.438;8.752;2023-12-07T11:30:30;8.77;;;5.60;;
52047;SDS011;46904;49.438;8.752;2023-12-07T11:32:56;11.18;;;5.75;;
52047;SDS011;46904;49.438;8.752;2023-12-07T11:35:21;9.20;;;5.53;;
52047;SDS011;46904;49.438;8.752;2023-12-07T11:38:00;10.23;;;6.03;;
52047;SDS011;46904;49.438;8.752;2023-12-07T11:40:25;8.65;;;5.47;;
52047;SDS011;46904;49.438;8.752;2023-12-07T11:42:52;8.02;;;5.43;;
52047;SDS011;46904;49.438;8.752;2023-12-07T11:45:35;9.45;;;6.22;;
52047;SDS011;46904;49.438;8.752;2023-12-07T11:48:11;9.10;;;5.72;;
52047;SDS011;46904;49.438;8.752;2023-12-07T11:50:42;9.10;;;5.50;;
52047;SDS011;46904;49.438;8.752;2023-12-07T11:53:20;8.68;;;5.53;;
52047;SDS011;46904;49.438;8.752;2023-12-07T11:55:46;8.10;;;5.00;;
52047;SDS011;46904;49.438;8.752;2023-12-07T11:58:12;9.13;;;5.68;;
52047;SDS011;46904;49.438;8.752;2023-12-07T12:00:38;7.93;;;5.05;;
52047;SDS011;46904;49.438;8.752;2023-12-07T12:03:05;7.78;;;5.75;;
52047;SDS011;46904;49.438;8.752;2023-12-07T12:05:31;9.30;;;5.72;;
52047;SDS011;46904;49.438;8.752;2023-12-07T12:07:59;11.15;;;6.40;;
52047;SDS011;46904;49.438;8.752;2023-12-07T12:10:24;11.15;;;6.80;;
52047;SDS011;46904;49.438;8.752;2023-12-07T12:12:50;8.80;;;5.72;;
52047;SDS011;46904;49.438;8.752;2023-12-07T12:15:16;10.75;;;6.00;;
52047;SDS011;46904;49.438;8.752;2023-12-07T12:17:41;8.15;;;5.70;;
52047;SDS011;46904;49.438;8.752;2023-12-07T12:20:08;8.50;;;5.20;;
52047;SDS011;46904;49.438;8.752;2023-12-07T12:22:36;8.45;;;5.53;;
52047;SDS011;46904;49.438;8.752;2023-12-07T12:25:04;9.23;;;5.10;;
52047;SDS011;46904;49.438;8.752;2023-12-07T12:27:30;9.40;;;5.75;;
52047;SDS011;46904;49.438;8.752;2023-12-07T12:35:19;10.38;;;6.32;;
52047;SDS011;46904;49.438;8.752;2023-12-07T12:37:46;13.15;;;6.70;;
52047;SDS011;46904;49.438;8.752;2023-12-07T12:40:12;9.80;;;6.45;;
52047;SDS011;46904;49.438;8.752;2023-12-07T12:42:38;10.95;;;5.95;;
52047;SDS011;46904;49.438;8.752;2023-12-07T12:45:04;6.80;;;4.93;;
52047;SDS011;46904;49.438;8.752;2023-12-07T12:47:30;8.50;;;5.80;;
52047;SDS011;46904;49.438;8.752;2023-12-07T12:49:56;9.45;;;6.55;;
52047;SDS011;46904;49.438;8.752;2023-12-07T12:52:21;8.73;;;5.80;;
52047;SDS011;46904;49.438;8.752;2023-12-07T12:54:48;9.00;;;5.70;;
52047;SDS011;46904;49.438;8.752;2023-12-07T12:57:14;8.20;;;5.50;;
52047;SDS011;46904;49.438;8.752;2023-12-07T12:59:39;11.07;;;5.97;;
52047;SDS011;46904;49.438;8.752;2023-12-07T13:02:05;9.45;;;6.45;;
52047;SDS011;46904;49.438;8.752;2023-12-07T13:04:31;9.20;;;5.70;;
52047;SDS011;46904;49.438;8.752;2023-12-07T13:06:56;11.60;;;6.03;;
52047;SDS011;46904;49.438;8.752;2023-12-07T13:09:22;10.48;;;6.15;;
52047;SDS011;46904;49.438;8.752;2023-12-07T13:11:48;10.10;;;5.90;;
52047;SDS011;46904;49.438;8.752;2023-12-07T13:14:13;9.88;;;6.38;;
52047;SDS011;46904;49.438;8.752;2023-12-07T13:16:39;10.43;;;6.10;;
52047;SDS011;46904;49.438;8.752;2023-12-07T13:19:04;9.63;;;6.50;;
52047;SDS011;46904;49.438;8.752;2023-12-07T13:21:30;9.02;;;6.35;;
52047;SDS011;46904;49.438;8.752;2023-12-07T13:23:56;8.20;;;5.25;;
52047;SDS011;46904;49.438;8.752;2023-12-07T13:26:21;8.93;;;5.97;;
52047;SDS011;46904;49.438;8.752;2023-12-07T13:28:47;9.60;;;6.28;;
52047;SDS011;46904;49.438;8.752;2023-12-07T13:31:12;12.13;;;7.50;;
52047;SDS011;46904;49.438;8.752;2023-12-07T13:33:38;9.48;;;6.40;;
52047;SDS011;46904;49.438;8.752;2023-12-07T13:36:03;10.80;;;6.47;;
52047;SDS011;46904;49.438;8.752;2023-12-07T13:38:29;9.32;;;5.97;;
52047;SDS011;46904;49.438;8.752;2023-12-07T13:40:55;9.65;;;5.90;;
52047;SDS011;46904;49.438;8.752;2023-12-07T13:43:20;9.18;;;5.90;;
52047;SDS011;46904;49.438;8.752;2023-12-07T13:45:46;12.88;;;6.40;;
52047;SDS011;46904;49.438;8.752;2023-12-07T13:48:11;8.32;;;5.85;;
52047;SDS011;46904;49.438;8.752;2023-12-07T13:50:37;9.30;;;5.80;;
52047;SDS011;46904;49.438;8.752;2023-12-07T13:53:03;8.63;;;5.60;;
52047;SDS011;46904;49.438;8.752;2023-12-07T13:55:28;9.05;;;5.60;;
52047;SDS011;46904;49.438;8.752;2023-12-07T13:57:54;7.10;;;4.88;;
52047;SDS011;46904;49.438;8.752;2023-12-07T14:00:19;9.32;;;5.13;;
52047;SDS011;46904;49.438;8.752;2023-12-07T14:02:45;7.53;;;5.15;;
52047;SDS011;46904;49.438;8.752;2023-12-07T14:05:10;8.65;;;4.85;;
52047;SDS011;46904;49.438;8.752;2023-12-07T14:07:36;8.02;;;4.80;;
52047;SDS011;46904;49.438;8.752;2023-12-07T14:10:02;8.45;;;5.35;;
52047;SDS011;46904;49.438;8.752;2023-12-07T14:12:27;9.23;;;6.60;;
52047;SDS011;46904;49.438;8.752;2023-12-07T14:14:54;11.75;;;5.75;;
52047;SDS011;46904;49.438;8.752;2023-12-07T14:17:19;9.30;;;6.18;;
52047;SDS011;46904;49.438;8.752;2023-12-07T14:19:45;10.98;;;5.40;;
52047;SDS011;46904;49.438;8.752;2023-12-07T14:22:10;7.70;;;5.80;;
52047;SDS011;46904;49.438;8.752;2023-12-07T14:24:36;10.20;;;6.07;;
52047;SDS011;46904;49.438;8.752;2023-12-07T14:27:02;9.73;;;5.70;;
52047;SDS011;46904;49.438;8.752;2023-12-07T14:29:28;25.50;;;12.93;;
52047;SDS011;46904;49.438;8.752;2023-12-07T14:31:53;23.27;;;11.70;;
52047;SDS011;46904;49.438;8.752;2023-12-07T14:34:19;11.52;;;6.93;;
52047;SDS011;46904;49.438;8.752;2023-12-07T14:36:44;11.73;;;6.68;;
52047;SDS011;46904;49.438;8.752;2023-12-07T14:39:13;10.73;;;6.22;;
52047;SDS011;46904;49.438;8.752;2023-12-07T14:41:39;9.52;;;5.57;;
52047;SDS011;46904;49.438;8.752;2023-12-07T14:44:04;8.30;;;5.78;;
52047;SDS011;46904;49.438;8.752;2023-12-07T14:46:30;8.85;;;5.55;;
52047;SDS011;46904;49.438;8.752;2023-12-07T14:48:55;8.30;;;5.22;;
52047;SDS011;46904;49.438;8.752;2023-12-07T14:51:21;10.70;;;6.10;;
52047;SDS011;46904;49.438;8.752;2023-12-07T14:53:47;8.15;;;5.88;;
52047;SDS011;46904;49.438;8.752;2023-12-07T14:56:12;7.97;;;5.25;;
52047;SDS011;46904;49.438;8.752;2023-12-07T14:58:38;9.90;;;6.63;;
52047;SDS011;46904;49.438;8.752;2023-12-07T15:01:03;13.10;;;7.88;;
52047;SDS011;46904;49.438;8.752;2023-12-07T15:03:29;13.02;;;6.97;;
52047;SDS011;46904;49.438;8.752;2023-12-07T15:05:58;12.45;;;7.82;;
52047;SDS011;46904;49.438;8.752;2023-12-07T15:08:23;9.40;;;6.82;;
52047;SDS011;46904;49.438;8.752;2023-12-07T15:10:49;11.10;;;6.18;;
52047;SDS011;46904;49.438;8.752;2023-12-07T15:13:14;9.57;;;6.13;;
52047;SDS011;46904;49.438;8.752;2023-12-07T15:15:40;8.15;;;5.65;;
52047;SDS011;46904;49.438;8.752;2023-12-07T15:18:07;10.73;;;6.57;;
52047;SDS011;46904;49.438;8.752;2023-12-07T15:20:32;10.77;;;7.30;;
52047;SDS011;46904;49.438;8.752;2023-12-07T15:22:58;11.43;;;6.88;;
52047;SDS011;46904;49.438;8.752;2023-12-07T15:25:23;11.43;;;7.10;;
52047;SDS011;46904;49.438;8.752;2023-12-07T15:27:49;10.32;;;6.55;;
52047;SDS011;46904;49.438;8.752;2023-12-07T15:30:18;11.15;;;6.70;;
52047;SDS011;46904;49.438;8.752;2023-12-07T15:33:05;11.70;;;6.57;;
52047;SDS011;46904;49.438;8.752;2023-12-07T15:35:32;9.95;;;6.45;;
52047;SDS011;46904;49.438;8.752;2023-12-07T15:37:58;8.50;;;6.00;;
52047;SDS011;46904;49.438;8.752;2023-12-07T15:40:25;9.43;;;5.68;;
52047;SDS011;46904;49.438;8.752;2023-12-07T15:42:51;9.95;;;6.07;;
52047;SDS011;46904;49.438;8.752;2023-12-07T15:45:16;9.75;;;6.85;;
52047;SDS011;46904;49.438;8.752;2023-12-07T15:47:42;12.32;;;7.68;;
52047;SDS011;46904;49.438;8.752;2023-12-07T15:50:08;11.68;;;8.18;;
52047;SDS011;46904;49.438;8.752;2023-12-07T15:52:33;10.18;;;6.90;;
52047;SDS011;46904;49.438;8.752;2023-12-07T15:54:59;13.10;;;8.13;;
52047;SDS011;46904;49.438;8.752;2023-12-07T15:57:25;11.00;;;6.32;;
52047;SDS011;46904;49.438;8.752;2023-12-07T15:59:50;11.10;;;7.38;;
52047;SDS011;46904;49.438;8.752;2023-12-07T16:02:16;12.32;;;7.38;;
52047;SDS011;46904;49.438;8.752;2023-12-07T16:04:42;10.85;;;7.32;;
52047;SDS011;46904;49.438;8.752;2023-12-07T16:07:07;13.75;;;9.15;;
52047;SDS011;46904;49.438;8.752;2023-12-07T16:09:34;13.90;;;9.02;;
52047;SDS011;46904;49.438;8.752;2023-12-07T16:12:00;13.23;;;8.77;;
52047;SDS011;46904;49.438;8.752;2023-12-07T16:14:26;9.68;;;7.03;;
52047;SDS011;46904;49.438;8.752;2023-12-07T16:16:55;11.65;;;7.10;;
52047;SDS011;46904;49.438;8.752;2023-12-07T16:19:21;10.43;;;6.65;;
52047;SDS011;46904;49.438;8.752;2023-12-07T16:21:47;9.70;;;6.93;;
52047;SDS011;46904;49.438;8.752;2023-12-07T16:24:14;11.45;;;7.70;;
52047;SDS011;46904;49.438;8.752;2023-12-07T16:26:41;12.00;;;7.95;;
52047;SDS011;46904;49.438;8.752;2023-12-07T16:29:32;15.30;;;9.77;;
52047;SDS011;46904;49.438;8.752;2023-12-07T16:32:03;14.52;;;10.23;;
52047;SDS011;46904;49.438;8.752;2023-12-07T16:34:29;12.32;;;7.93;;
52047;SDS011;46904;49.438;8.752;2023-12-07T16:36:55;11.45;;;7.45;;
52047;SDS011;46904;49.438;8.752;2023-12-07T16:39:22;10.23;;;7.43;;
52047;SDS011;46904;49.438;8.752;2023-12-07T16:41:48;10.85;;;6.47;;
52047;SDS011;46904;49.438;8.752;2023-12-07T16:44:14;11.90;;;6.18;;
52047;SDS011;46904;49.438;8.752;2023-12-07T16:49:49;10.15;;;7.03;;
52047;SDS011;46904;49.438;8.752;2023-12-07T16:52:18;10.40;;;6.07;;
52047;SDS011;46904;49.438;8.752;2023-12-07T16:54:49;7.28;;;5.53;;
52047;SDS011;46904;49.438;8.752;2023-12-07T16:57:38;7.55;;;5.47;;
52047;SDS011;46904;49.438;8.752;2023-12-07T17:03:59;11.35;;;7.13;;
52047;SDS011;46904;49.438;8.752;2023-12-07T17:06:34;12.93;;;6.70;;
52047;SDS011;46904;49.438;8.752;2023-12-07T17:09:04;10.45;;;6.68;;
52047;SDS011;46904;49.438;8.752;2023-12-07T17:11:32;7.82;;;5.45;;
52047;SDS011;46904;49.438;8.752;2023-12-07T17:13:58;8.00;;;6.00;;
52047;SDS011;46904;49.438;8.752;2023-12-07T17:16:27;9.48;;;6.28;;
52047;SDS011;46904;49.438;8.752;2023-12-07T17:21:48;12.60;;;8.40;;
52047;SDS011;46904;49.438;8.752;2023-12-07T17:24:41;21.50;;;10.68;;
52047;SDS011;46904;49.438;8.752;2023-12-07T17:27:10;17.23;;;9.25;;
52047;SDS011;46904;49.438;8.752;2023-12-07T17:29:38;14.48;;;8.63;;
52047;SDS011;46904;49.438;8.752;2023-12-07T17:32:08;23.25;;;12.52;;
52047;SDS011;46904;49.438;8.752;2023-12-07T17:34:36;13.77;;;9.05;;
52047;SDS011;46904;49.438;8.752;2023-12-07T17:37:05;16.10;;;9.60;;
52047;SDS011;46904;49.438;8.752;2023-12-07T17:39:38;10.20;;;7.03;;
52047;SDS011;46904;49.438;8.752;2023-12-07T17:42:04;10.52;;;7.60;;
52047;SDS011;46904;49.438;8.752;2023-12-07T17:44:34;14.27;;;8.88;;
52047;SDS011;46904;49.438;8.752;2023-12-07T17:47:01;11.95;;;7.32;;
52047;SDS011;46904;49.438;8.752;2023-12-07T17:49:34;9.02;;;5.85;;
52047;SDS011;46904;49.438;8.752;2023-12-07T17:52:00;9.43;;;6.22;;
52047;SDS011;46904;49.438;8.752;2023-12-07T17:54:25;6.85;;;5.35;;
52047;SDS011;46904;49.438;8.752;2023-12-07T17:56:54;8.38;;;5.35;;
52047;SDS011;46904;49.438;8.752;2023-12-07T17:59:20;8.13;;;5.32;;
52047;SDS011;46904;49.438;8.752;2023-12-07T18:01:48;8.18;;;5.68;;
52047;SDS011;46904;49.438;8.752;2023-12-07T18:04:22;8.15;;;5.78;;
52047;SDS011;46904;49.438;8.752;2023-12-07T18:06:53;9.32;;;5.43;;
52047;SDS011;46904;49.438;8.752;2023-12-07T18:09:19;9.32;;;6.20;;
52047;SDS011;46904;49.438;8.752;2023-12-07T18:11:46;11.13;;;6.05;;
52047;SDS011;46904;49.438;8.752;2023-12-07T18:14:18;6.40;;;5.05;;
52047;SDS011;46904;49.438;8.752;2023-12-07T18:16:48;13.13;;;7.68;;
52047;SDS011;46904;49.438;8.752;2023-12-07T18:19:14;10.85;;;6.53;;
52047;SDS011;46904;49.438;8.752;2023-12-07T18:21:41;12.35;;;7.63;;
52047;SDS011;46904;49.438;8.752;2023-12-07T18:24:09;11.20;;;6.95;;
52047;SDS011;46904;49.438;8.752;2023-12-07T18:26:43;8.43;;;6.22;;
52047;SDS011;46904;49.438;8.752;2023-12-07T18:29:09;7.50;;;5.70;;
52047;SDS011;46904;49.438;8.752;2023-12-07T18:31:35;9.48;;;6.50;;
52047;SDS011;46904;49.438;8.752;2023-12-07T18:34:00;7.63;;;5.70;;
52047;SDS011;46904;49.438;8.752;2023-12-07T18:36:27;9.50;;;6.10;;
52047;SDS011;46904;49.438;8.752;2023-12-07T18:38:52;9.20;;;5.78;;
52047;SDS011;46904;49.438;8.752;2023-12-07T18:41:18;8.35;;;5.65;;
52047;SDS011;46904;49.438;8.752;2023-12-07T18:43:44;9.35;;;5.82;;
52047;SDS011;46904;49.438;8.752;2023-12-07T18:46:10;8.77;;;6.15;;
52047;SDS011;46904;49.438;8.752;2023-12-07T18:48:40;8.73;;;5.90;;
52047;SDS011;46904;49.438;8.752;2023-12-07T18:51:08;7.82;;;5.20;;
52047;SDS011;46904;49.438;8.752;2023-12-07T18:53:34;9.50;;;5.60;;
52047;SDS011;46904;49.438;8.752;2023-12-07T18:56:03;9.60;;;5.70;;
52047;SDS011;46904;49.438;8.752;2023-12-07T18:58:53;8.18;;;5.53;;
52047;SDS011;46904;49.438;8.752;2023-12-07T19:01:45;9.15;;;6.15;;
52047;SDS011;46904;49.438;8.752;2023-12-07T19:04:14;8.75;;;5.82;;
52047;SDS011;46904;49.438;8.752;2023-12-07T19:06:42;8.05;;;5.95;;
52047;SDS011;46904;49.438;8.752;2023-12-07T19:09:12;7.95;;;5.65;;
52047;SDS011;46904;49.438;8.752;2023-12-07T19:11:39;8.75;;;6.38;;
52047;SDS011;46904;49.438;8.752;2023-12-07T19:14:18;9.95;;;6.65;;
52047;SDS011;46904;49.438;8.752;2023-12-07T19:16:55;10.65;;;6.70;;
52047;SDS011;46904;49.438;8.752;2023-12-07T19:19:21;10.23;;;6.50;;
52047;SDS011;46904;49.438;8.752;2023-12-07T19:21:48;11.35;;;6.93;;
52047;SDS011;46904;49.438;8.752;2023-12-07T19:24:19;9.45;;;6.47;;
52047;SDS011;46904;49.438;8.752;2023-12-07T19:26:51;11.02;;;6.72;;
52047;SDS011;46904;49.438;8.752;2023-12-07T19:29:42;9.43;;;6.90;;
52047;SDS011;46904;49.438;8.752;2023-12-07T19:34:47;9.82;;;6.97;;
52047;SDS011;46904;49.438;8.752;2023-12-07T19:37:15;9.95;;;6.07;;
52047;SDS011;46904;49.438;8.752;2023-12-07T19:39:42;11.57;;;7.88;;
52047;SDS011;46904;49.438;8.752;2023-12-07T19:42:08;10.50;;;7.07;;
52047;SDS011;46904;49.438;8.752;2023-12-07T19:44:34;8.32;;;6.07;;
52047;SDS011;46904;49.438;8.752;2023-12-07T19:47:00;10.50;;;6.90;;
52047;SDS011;46904;49.438;8.752;2023-12-07T19:49:27;11.38;;;7.38;;
52047;SDS011;46904;49.438;8.752;2023-12-07T19:51:53;10.98;;;6.72;;
52047;SDS011;46904;49.438;8.752;2023-12-07T19:54:19;8.63;;;6.13;;
52047;SDS011;46904;49.438;8.752;2023-12-07T19:56:46;7.93;;;5.70;;
52047;SDS011;46904;49.438;8.752;2023-12-07T19:59:12;9.10;;;6.63;;
52047;SDS011;46904;49.438;8.752;2023-12-07T20:01:38;8.82;;;6.32;;
52047;SDS011;46904;49.438;8.752;2023-12-07T20:04:10;12.00;;;7.20;;
52047;SDS011;46904;49.438;8.752;2023-12-07T20:06:36;8.88;;;6.35;;
52047;SDS011;46904;49.438;8.752;2023-12-07T20:09:02;10.10;;;6.90;;
52047;SDS011;46904;49.438;8.752;2023-12-07T20:11:28;10.77;;;7.35;;
52047;SDS011;46904;49.438;8.752;2023-12-07T20:13:56;11.43;;;7.95;;
52047;SDS011;46904;49.438;8.752;2023-12-07T20:16:22;11.35;;;7.25;;
52047;SDS011;46904;49.438;8.752;2023-12-07T20:18:48;15.30;;;9.60;;
52047;SDS011;46904;49.438;8.752;2023-12-07T20:21:15;13.27;;;8.23;;
52047;SDS011;46904;49.438;8.752;2023-12-07T20:23:42;12.35;;;8.10;;
52047;SDS011;46904;49.438;8.752;2023-12-07T20:26:09;11.18;;;7.32;;
52047;SDS011;46904;49.438;8.752;2023-12-07T20:28:36;15.30;;;9.68;;
52047;SDS011;46904;49.438;8.752;2023-12-07T20:31:03;12.03;;;8.30;;
52047;SDS011;46904;49.438;8.752;2023-12-07T20:33:29;10.55;;;7.10;;
52047;SDS011;46904;49.438;8.752;2023-12-07T20:35:55;13.88;;;7.70;;
52047;SDS011;46904;49.438;8.752;2023-12-07T20:38:28;10.23;;;6.85;;
52047;SDS011;46904;49.438;8.752;2023-12-07T20:41:17;9.93;;;6.68;;
52047;SDS011;46904;49.438;8.752;2023-12-07T20:44:04;10.48;;;7.35;;
52047;SDS011;46904;49.438;8.752;2023-12-07T20:46:35;10.25;;;6.93;;
52047;SDS011;46904;49.438;8.752;2023-12-07T20:49:11;10.48;;;7.72;;
52047;SDS011;46904;49.438;8.752;2023-12-07T20:51:37;10.85;;;7.13;;
52047;SDS011;46904;49.438;8.752;2023-12-07T20:54:14;11.02;;;7.05;;
52047;SDS011;46904;49.438;8.752;2023-12-07T20:56:49;11.20;;;7.10;;
52047;SDS011;46904;49.438;8.752;2023-12-07T20:59:17;7.88;;;6.18;;
52047;SDS011;46904;49.438;8.752;2023-12-07T21:02:01;9.48;;;6.63;;
52047;SDS011;46904;49.438;8.752;2023-12-07T21:04:39;11.00;;;7.13;;
52047;SDS011;46904;49.438;8.752;2023-12-07T21:07:12;10.90;;;7.38;;
52047;SDS011;46904;49.438;8.752;2023-12-07T21:09:41;10.05;;;6.93;;
52047;SDS011;46904;49.438;8.752;2023-12-07T21:12:08;11.27;;;7.25;;
52047;SDS011;46904;49.438;8.752;2023-12-07T21:14:34;10.18;;;6.43;;